M/V Steilacoom II — WDD5115 — position and weather

sailwx.info

Track history (hours):
 
Tides and Currents Weather Stations Pressure Air Temp Water Temp Dewpoint Dewpoint Depression Visibility Wind Speed Wind Dir Waves Ship Positions

M/V Steilacoom II

Owner: Pierce County Public Works & Utilities, RALEIGH, NC. More information available from US FCC via Universal Licensing System and Coast Guard Vessel Documentation Center.

Last reported at 2018-Apr-04 19:22 UTC. Time now 2018-Jul-21 15:36 UTC.
Position N 47°11' W 122°40'.
Warning: this ship's position is months out of date.

Date/timePositionNaut miles runAvg speedWind from/ knotsBaromVisibWave heightAir tempDewpointWater temp
2018-Apr-04 19:22N 47°11' W 122°40'2 4.6
2018-Apr-04 18:50N 47°11' W 122°36'2 1.7
2018-Apr-04 17:25N 47°11' W 122°40'2 4.5
2018-Apr-04 16:54N 47°11' W 122°36'2 4.6
2018-Apr-04 16:24N 47°11' W 122°40'2 4.6
2018-Apr-04 15:52N 47°11' W 122°36'3 4.9
2018-Apr-04 15:20N 47°11' W 122°40'3 5.1
2018-Apr-04 14:50N 47°10' W 122°36'3 3.7
2018-Apr-04 14:03N 47°11' W 122°40'110.6
2018-Apr-04 14:00N 47°11' W 122°40'2 4.1
2018-Apr-04 13:31N 47°11' W 122°37'2 4.4
2018-Apr-04 13:00N 47°11' W 122°40'2 3.7
2018-Apr-04 12:29N 47°11' W 122°37'2 4.2
2018-Apr-04 12:00N 47°11' W 122°40'3 0.3
2018-Apr-04 04:28N 47°10' W 122°36'3 5.3
2018-Apr-04 03:58N 47°11' W 122°40'2 5.4
2018-Apr-04 03:30N 47°11' W 122°37'1 2.7
2018-Apr-04 03:00N 47°11' W 122°39'1 1.8
2018-Apr-04 02:26N 47°10' W 122°38'2 3.9
2018-Apr-04 01:56N 47°11' W 122°40'3 4.2
2018-Apr-04 01:18N 47°11' W 122°36'3 4.9
2018-Apr-04 00:45N 47°11' W 122°40'3 5.1
2018-Apr-04 00:13N 47°10' W 122°36'2 8.2
2018-Apr-04 00:00N 47°11' W 122°39'1 2.3
2018-Apr-03 23:29N 47°10' W 122°37'1 1.3
2018-Apr-03 23:00N 47°11' W 122°38'0 0.8
2018-Apr-03 22:30N 47°11' W 122°38'0 0.7
2018-Apr-03 22:00N 47°11' W 122°38'0 0.8
2018-Apr-03 21:30N 47°11' W 122°38'1 1.1
2018-Apr-03 20:13N 47°11' W 122°36'1 6.2
2018-Apr-03 20:00N 47°10' W 122°38'2 2.4
2018-Apr-03 19:17N 47°11' W 122°40'2 2.1
2018-Apr-03 18:10N 47°11' W 122°36'211.0
2018-Apr-03 18:00N 47°11' W 122°39'1 2.1
2018-Apr-03 17:30N 47°10' W 122°38'1 1.2
2018-Apr-03 16:52N 47°11' W 122°36'2 4.9
2018-Apr-03 16:22N 47°11' W 122°40'2 4.6
2018-Apr-03 15:50N 47°11' W 122°36'3 5.1
2018-Apr-03 15:20N 47°11' W 122°40'2 4.6
2018-Apr-03 14:48N 47°11' W 122°36'3 5.4
2018-Apr-03 14:20N 47°11' W 122°40'2 6.2
2018-Apr-03 14:00N 47°10' W 122°38'1 2.3
2018-Apr-03 13:30N 47°11' W 122°37'2 3.8
2018-Apr-03 13:00N 47°11' W 122°40'2 3.4
2018-Apr-03 12:29N 47°11' W 122°37'1 2.0
2018-Apr-03 11:56N 47°11' W 122°39'2 0.2
2018-Apr-03 01:43N 47°11' W 122°36'2 5.7
2018-Apr-03 01:16N 47°11' W 122°40'1 2.9
2018-Apr-03 00:59N 47°11' W 122°39'1 0.6
2018-Apr-03 00:03N 47°11' W 122°38'1 3.8
2018-Apr-02 23:43N 47°11' W 122°36'3 5.2
2018-Apr-02 23:14N 47°11' W 122°40'2 0.3
2018-Apr-02 18:27N 47°11' W 122°38'0 0.1
2018-Apr-02 12:53N 47°11' W 122°38'0 0.3
2018-Apr-02 12:25N 47°11' W 122°38'0 0.0
2018-Apr-02 03:36N 47°11' W 122°38'2 4.4
2018-Apr-02 03:14N 47°11' W 122°40'2 3.4
2018-Apr-02 02:38N 47°10' W 122°38'1 0.3
2018-Apr-01 22:37N 47°11' W 122°38'1 3.3
2018-Apr-01 22:12N 47°11' W 122°36'210.9
2018-Apr-01 22:00N 47°11' W 122°40'1 1.7
2018-Apr-01 21:30N 47°11' W 122°38'1 0.5
2018-Apr-01 19:48N 47°10' W 122°38'1 1.8
2018-Apr-01 19:11N 47°11' W 122°39'1 0.9
2018-Apr-01 17:43N 47°11' W 122°37'2 4.3
2018-Apr-01 17:16N 47°11' W 122°40'2 3.6
2018-Apr-01 16:43N 47°11' W 122°37'2 4.9
2018-Apr-01 16:17N 47°11' W 122°40'2 3.9
2018-Apr-01 15:43N 47°11' W 122°37'2 3.4
2018-Apr-01 15:13N 47°11' W 122°39'2 3.1
2018-Apr-01 14:43N 47°11' W 122°37'2 4.4
2018-Apr-01 14:14N 47°11' W 122°40'2 8.3
2018-Apr-01 13:59N 47°10' W 122°38'1 0.1
2018-Apr-01 05:42N 47°10' W 122°38'2 4.0
2018-Apr-01 05:17N 47°11' W 122°40'2 3.1
2018-Apr-01 04:32N 47°11' W 122°37'011.4
2018-Apr-01 04:30N 47°11' W 122°37'1 1.4
2018-Apr-01 04:00N 47°11' W 122°38'0 0.4
2018-Apr-01 03:30N 47°11' W 122°39'1 2.0
2018-Apr-01 03:01N 47°11' W 122°37'1 1.9
2018-Apr-01 02:28N 47°10' W 122°38'2 4.3
2018-Apr-01 01:58N 47°11' W 122°40'3 4.1
2018-Apr-01 01:16N 47°11' W 122°36'2 4.8
2018-Apr-01 00:45N 47°11' W 122°40'2 3.9
2018-Apr-01 00:10N 47°11' W 122°37'210.8
2018-Mar-31 23:56N 47°11' W 122°40'2 4.4
2018-Mar-31 23:30N 47°11' W 122°37'2 3.1
2018-Mar-31 22:59N 47°11' W 122°40'2 3.4
2018-Mar-31 22:30N 47°11' W 122°37'1 2.2
2018-Mar-31 22:00N 47°11' W 122°39'0 0.6
2018-Mar-31 21:30N 47°11' W 122°38'1 0.8
2018-Mar-31 20:01N 47°10' W 122°37'1 3.9
2018-Mar-31 19:48N 47°10' W 122°38'2 3.7
2018-Mar-31 19:15N 47°11' W 122°40'2 1.4
2018-Mar-31 17:43N 47°11' W 122°37'2 4.6
2018-Mar-31 17:16N 47°11' W 122°40'2 3.7
2018-Mar-31 16:42N 47°11' W 122°37'2 4.5
2018-Mar-31 16:17N 47°11' W 122°40'2 4.4
2018-Mar-31 15:45N 47°11' W 122°36'2 5.1
2018-Mar-31 15:16N 47°11' W 122°40'2 3.6
2018-Mar-31 14:43N 47°11' W 122°37'2 4.4
2018-Mar-31 14:14N 47°11' W 122°40'2 8.1
2018-Mar-31 13:59N 47°10' W 122°38'1 2.3
2018-Mar-31 13:29N 47°11' W 122°37'2 4.7
2018-Mar-31 13:00N 47°11' W 122°40'2 0.2
2018-Mar-31 05:43N 47°10' W 122°38'1 2.0
2018-Mar-31 05:13N 47°11' W 122°38'1 1.5
2018-Mar-31 04:26N 47°11' W 122°37'1 3.3
2018-Mar-31 03:59N 47°11' W 122°39'1 2.0
2018-Mar-31 03:30N 47°11' W 122°38'0 0.6
2018-Mar-31 03:01N 47°11' W 122°38'1 1.6
2018-Mar-31 02:25N 47°10' W 122°37'2 4.4
2018-Mar-31 01:57N 47°11' W 122°40'2 2.4
2018-Mar-31 01:11N 47°11' W 122°37'2 3.9
2018-Mar-31 00:45N 47°11' W 122°40'210.3
2018-Mar-31 00:30N 47°11' W 122°36'2 1.7
2018-Mar-30 23:36N 47°11' W 122°38'210.8
2018-Mar-30 23:27N 47°11' W 122°36'1 0.7
2018-Mar-30 22:04N 47°11' W 122°38'0 0.0
2018-Mar-30 18:03N 47°11' W 122°38'112.2
2018-Mar-30 17:59N 47°11' W 122°39'0 0.4
2018-Mar-30 16:35N 47°11' W 122°40'110.2
2018-Mar-30 16:29N 47°11' W 122°38'1 1.0
2018-Mar-30 15:55N 47°11' W 122°37'2 3.0
2018-Mar-30 15:25N 47°11' W 122°40'1 1.9
2018-Mar-30 14:48N 47°11' W 122°38'0 0.3
2018-Mar-30 13:30N 47°11' W 122°37'0 0.6
2018-Mar-30 12:53N 47°11' W 122°38'0 0.3
2018-Mar-30 11:55N 47°11' W 122°38'0 0.0
2018-Mar-30 02:58N 47°11' W 122°38'1 2.4
2018-Mar-30 02:29N 47°10' W 122°38'1 1.0
2018-Mar-30 01:06N 47°11' W 122°39'1 1.1
2018-Mar-30 00:02N 47°11' W 122°37'011.0
2018-Mar-30 00:00N 47°11' W 122°38'0 0.8
2018-Mar-29 23:30N 47°11' W 122°39'1 0.5
2018-Mar-29 22:26N 47°11' W 122°38'0 0.4
2018-Mar-29 22:01N 47°11' W 122°38'0 0.8
2018-Mar-29 21:28N 47°11' W 122°38'1 0.8
2018-Mar-29 20:01N 47°10' W 122°38'0 0.0
2018-Mar-29 19:53N 47°10' W 122°38'1 0.6
2018-Mar-29 17:53N 47°11' W 122°36'2 4.3
2018-Mar-29 17:20N 47°11' W 122°40'2 3.2
2018-Mar-29 16:46N 47°11' W 122°37'2 3.1
2018-Mar-29 16:16N 47°11' W 122°39'2 3.2
2018-Mar-29 15:46N 47°11' W 122°37'2 3.7
2018-Mar-29 15:17N 47°11' W 122°40'2 3.5
2018-Mar-29 14:45N 47°11' W 122°37'0 0.0
2018-Mar-29 04:22N 47°10' W 122°38'2 4.3
2018-Mar-29 03:56N 47°11' W 122°40'2 4.4
2018-Mar-29 03:27N 47°11' W 122°37'1 3.0
2018-Mar-29 02:58N 47°11' W 122°39'1 2.5
2018-Mar-29 02:24N 47°10' W 122°38'2 3.8
2018-Mar-29 01:55N 47°11' W 122°40'2 3.6
2018-Mar-29 01:16N 47°11' W 122°36'3 5.3
2018-Mar-29 00:47N 47°11' W 122°40'3 3.7
2018-Mar-29 00:05N 47°11' W 122°36'110.9
2018-Mar-29 00:00N 47°11' W 122°38'1 1.2
2018-Mar-28 23:29N 47°11' W 122°39'1 1.2
2018-Mar-28 23:00N 47°11' W 122°38'0 0.9
2018-Mar-28 22:30N 47°11' W 122°38'0 0.9
2018-Mar-28 22:00N 47°11' W 122°38'1 1.0
2018-Mar-28 21:29N 47°11' W 122°39'2 1.1
2018-Mar-28 20:04N 47°11' W 122°36'1 2.7
2018-Mar-28 19:42N 47°10' W 122°38'2 3.6
2018-Mar-28 19:15N 47°11' W 122°40'2 1.6
2018-Mar-28 17:46N 47°11' W 122°36'2 4.4
2018-Mar-28 17:15N 47°11' W 122°40'2 4.7
2018-Mar-28 16:46N 47°11' W 122°36'2 4.9
2018-Mar-28 16:17N 47°11' W 122°40'2 4.5
2018-Mar-28 15:46N 47°11' W 122°36'2 4.5
2018-Mar-28 15:16N 47°11' W 122°40'1 2.7
2018-Mar-28 14:43N 47°11' W 122°38'1 3.0
2018-Mar-28 14:14N 47°11' W 122°40'2 5.2
2018-Mar-28 13:53N 47°10' W 122°37'1 2.6
2018-Mar-28 13:29N 47°11' W 122°37'2 4.0
2018-Mar-28 13:00N 47°11' W 122°40'2 4.5
2018-Mar-28 12:30N 47°11' W 122°36'2 4.4
2018-Mar-28 12:00N 47°11' W 122°40'2 0.3
2018-Mar-28 04:25N 47°11' W 122°36'2 5.5
2018-Mar-28 03:59N 47°11' W 122°40'2 4.2
2018-Mar-28 03:26N 47°11' W 122°37'2 3.4
2018-Mar-28 02:58N 47°11' W 122°39'1 2.8
2018-Mar-28 02:28N 47°10' W 122°38'2 3.6
2018-Mar-28 01:56N 47°11' W 122°40'2 3.6
2018-Mar-28 01:16N 47°11' W 122°36'3 5.2
2018-Mar-28 00:47N 47°11' W 122°40'3 3.7
2018-Mar-28 00:05N 47°11' W 122°36'112.6
2018-Mar-28 00:00N 47°11' W 122°38'0 0.5
2018-Mar-27 23:30N 47°11' W 122°38'0 0.3
2018-Mar-27 23:00N 47°11' W 122°38'1 1.1
2018-Mar-27 22:30N 47°11' W 122°38'0 0.8
2018-Mar-27 22:00N 47°11' W 122°38'1 1.2
2018-Mar-27 21:30N 47°11' W 122°39'1 0.4
2018-Mar-27 19:55N 47°10' W 122°38'2 3.7
2018-Mar-27 19:29N 47°11' W 122°40'2 4.6
2018-Mar-27 18:59N 47°11' W 122°37'2 4.4
2018-Mar-27 18:30N 47°11' W 122°40'2 3.1
2018-Mar-27 17:59N 47°11' W 122°37'2 3.8
2018-Mar-27 17:30N 47°11' W 122°40'2 3.0
2018-Mar-27 16:57N 47°11' W 122°37'1 1.4
2018-Mar-27 16:21N 47°11' W 122°39'1 3.0
2018-Mar-27 15:51N 47°11' W 122°36'2 4.1
2018-Mar-27 15:17N 47°11' W 122°40'2 0.1
2018-Mar-26 20:04N 47°11' W 122°36'1 6.4
2018-Mar-26 19:51N 47°10' W 122°38'2 2.7
2018-Mar-26 19:14N 47°11' W 122°39'2 1.4
2018-Mar-26 17:46N 47°11' W 122°36'3 5.7
2018-Mar-26 17:17N 47°11' W 122°40'3 5.3
2018-Mar-26 16:46N 47°11' W 122°36'2 4.3
2018-Mar-26 16:15N 47°11' W 122°40'2 3.4
2018-Mar-26 15:43N 47°11' W 122°37'2 4.1
2018-Mar-26 15:15N 47°11' W 122°40'2 4.9
2018-Mar-26 14:46N 47°11' W 122°36'2 4.7
2018-Mar-26 14:15N 47°11' W 122°40'2 5.5
2018-Mar-26 13:54N 47°10' W 122°37'1 2.3
2018-Mar-26 13:27N 47°11' W 122°37'2 3.5
2018-Mar-26 13:00N 47°11' W 122°40'2 3.8
2018-Mar-26 12:30N 47°11' W 122°37'2 4.0
2018-Mar-26 12:00N 47°11' W 122°40'2 0.3
2018-Mar-26 04:29N 47°11' W 122°36'2 3.3
2018-Mar-26 03:59N 47°11' W 122°39'1 1.9
2018-Mar-26 03:30N 47°11' W 122°38'0 0.5
2018-Mar-26 03:00N 47°11' W 122°38'1 1.9
2018-Mar-26 02:26N 47°10' W 122°38'2 4.1
2018-Mar-26 01:56N 47°11' W 122°40'2 3.7
2018-Mar-26 01:16N 47°11' W 122°36'3 5.4
2018-Mar-26 00:47N 47°11' W 122°40'2 3.4
2018-Mar-26 00:07N 47°11' W 122°37'111.2
2018-Mar-26 00:00N 47°11' W 122°39'1 1.8
2018-Mar-25 23:30N 47°11' W 122°38'2 2.8
2018-Mar-25 22:56N 47°11' W 122°40'2 4.2
2018-Mar-25 22:30N 47°11' W 122°38'1 2.0
2018-Mar-25 22:00N 47°11' W 122°39'0 0.7
2018-Mar-25 21:30N 47°11' W 122°38'1 0.8
2018-Mar-25 20:04N 47°10' W 122°38'0 0.0
2018-Mar-25 19:59N 47°10' W 122°38'  
Track history (hours):
 
Tides and Currents Weather Stations Pressure Air Temp Water Temp Dewpoint Dewpoint Depression Visibility Wind Speed Wind Dir Waves Ship Positions

M/V Steilacoom II

Owner: Pierce County Public Works & Utilities, RALEIGH, NC. More information available from US FCC via Universal Licensing System and Coast Guard Vessel Documentation Center.

Last reported at 2018-Apr-04 19:22 UTC. Time now 2018-Jul-21 15:36 UTC.
Position N 47°11' W 122°40'.
Warning: this ship's position is months out of date.

Date/timePositionNaut miles runAvg speedWind from/ knotsBaromVisibWave heightAir tempDewpointWater temp
2018-Apr-04 19:22N 47°11' W 122°40'2 4.6
2018-Apr-04 18:50N 47°11' W 122°36'2 1.7
2018-Apr-04 17:25N 47°11' W 122°40'2 4.5
2018-Apr-04 16:54N 47°11' W 122°36'2 4.6
2018-Apr-04 16:24N 47°11' W 122°40'2 4.6
2018-Apr-04 15:52N 47°11' W 122°36'3 4.9
2018-Apr-04 15:20N 47°11' W 122°40'3 5.1
2018-Apr-04 14:50N 47°10' W 122°36'3 3.7
2018-Apr-04 14:03N 47°11' W 122°40'110.6
2018-Apr-04 14:00N 47°11' W 122°40'2 4.1
2018-Apr-04 13:31N 47°11' W 122°37'2 4.4
2018-Apr-04 13:00N 47°11' W 122°40'2 3.7
2018-Apr-04 12:29N 47°11' W 122°37'2 4.2
2018-Apr-04 12:00N 47°11' W 122°40'3 0.3
2018-Apr-04 04:28N 47°10' W 122°36'3 5.3
2018-Apr-04 03:58N 47°11' W 122°40'2 5.4
2018-Apr-04 03:30N 47°11' W 122°37'1 2.7
2018-Apr-04 03:00N 47°11' W 122°39'1 1.8
2018-Apr-04 02:26N 47°10' W 122°38'2 3.9
2018-Apr-04 01:56N 47°11' W 122°40'3 4.2
2018-Apr-04 01:18N 47°11' W 122°36'3 4.9
2018-Apr-04 00:45N 47°11' W 122°40'3 5.1
2018-Apr-04 00:13N 47°10' W 122°36'2 8.2
2018-Apr-04 00:00N 47°11' W 122°39'1 2.3
2018-Apr-03 23:29N 47°10' W 122°37'1 1.3
2018-Apr-03 23:00N 47°11' W 122°38'0 0.8
2018-Apr-03 22:30N 47°11' W 122°38'0 0.7
2018-Apr-03 22:00N 47°11' W 122°38'0 0.8
2018-Apr-03 21:30N 47°11' W 122°38'1 1.1
2018-Apr-03 20:13N 47°11' W 122°36'1 6.2
2018-Apr-03 20:00N 47°10' W 122°38'2 2.4
2018-Apr-03 19:17N 47°11' W 122°40'2 2.1
2018-Apr-03 18:10N 47°11' W 122°36'211.0
2018-Apr-03 18:00N 47°11' W 122°39'1 2.1
2018-Apr-03 17:30N 47°10' W 122°38'1 1.2
2018-Apr-03 16:52N 47°11' W 122°36'2 4.9
2018-Apr-03 16:22N 47°11' W 122°40'2 4.6
2018-Apr-03 15:50N 47°11' W 122°36'3 5.1
2018-Apr-03 15:20N 47°11' W 122°40'2 4.6
2018-Apr-03 14:48N 47°11' W 122°36'3 5.4
2018-Apr-03 14:20N 47°11' W 122°40'2 6.2
2018-Apr-03 14:00N 47°10' W 122°38'1 2.3
2018-Apr-03 13:30N 47°11' W 122°37'2 3.8
2018-Apr-03 13:00N 47°11' W 122°40'2 3.4
2018-Apr-03 12:29N 47°11' W 122°37'1 2.0
2018-Apr-03 11:56N 47°11' W 122°39'2 0.2
2018-Apr-03 01:43N 47°11' W 122°36'2 5.7
2018-Apr-03 01:16N 47°11' W 122°40'1 2.9
2018-Apr-03 00:59N 47°11' W 122°39'1 0.6
2018-Apr-03 00:03N 47°11' W 122°38'1 3.8
2018-Apr-02 23:43N 47°11' W 122°36'3 5.2
2018-Apr-02 23:14N 47°11' W 122°40'2 0.3
2018-Apr-02 18:27N 47°11' W 122°38'0 0.1
2018-Apr-02 12:53N 47°11' W 122°38'0 0.3
2018-Apr-02 12:25N 47°11' W 122°38'0 0.0
2018-Apr-02 03:36N 47°11' W 122°38'2 4.4
2018-Apr-02 03:14N 47°11' W 122°40'2 3.4
2018-Apr-02 02:38N 47°10' W 122°38'1 0.3
2018-Apr-01 22:37N 47°11' W 122°38'1 3.3
2018-Apr-01 22:12N 47°11' W 122°36'210.9
2018-Apr-01 22:00N 47°11' W 122°40'1 1.7
2018-Apr-01 21:30N 47°11' W 122°38'1 0.5
2018-Apr-01 19:48N 47°10' W 122°38'1 1.8
2018-Apr-01 19:11N 47°11' W 122°39'1 0.9
2018-Apr-01 17:43N 47°11' W 122°37'2 4.3
2018-Apr-01 17:16N 47°11' W 122°40'2 3.6
2018-Apr-01 16:43N 47°11' W 122°37'2 4.9
2018-Apr-01 16:17N 47°11' W 122°40'2 3.9
2018-Apr-01 15:43N 47°11' W 122°37'2 3.4
2018-Apr-01 15:13N 47°11' W 122°39'2 3.1
2018-Apr-01 14:43N 47°11' W 122°37'2 4.4
2018-Apr-01 14:14N 47°11' W 122°40'2 8.3
2018-Apr-01 13:59N 47°10' W 122°38'1 0.1
2018-Apr-01 05:42N 47°10' W 122°38'2 4.0
2018-Apr-01 05:17N 47°11' W 122°40'2 3.1
2018-Apr-01 04:32N 47°11' W 122°37'011.4
2018-Apr-01 04:30N 47°11' W 122°37'1 1.4
2018-Apr-01 04:00N 47°11' W 122°38'0 0.4
2018-Apr-01 03:30N 47°11' W 122°39'1 2.0
2018-Apr-01 03:01N 47°11' W 122°37'1 1.9
2018-Apr-01 02:28N 47°10' W 122°38'2 4.3
2018-Apr-01 01:58N 47°11' W 122°40'3 4.1
2018-Apr-01 01:16N 47°11' W 122°36'2 4.8
2018-Apr-01 00:45N 47°11' W 122°40'2 3.9
2018-Apr-01 00:10N 47°11' W 122°37'210.8
2018-Mar-31 23:56N 47°11' W 122°40'2 4.4
2018-Mar-31 23:30N 47°11' W 122°37'2 3.1
2018-Mar-31 22:59N 47°11' W 122°40'2 3.4
2018-Mar-31 22:30N 47°11' W 122°37'1 2.2
2018-Mar-31 22:00N 47°11' W 122°39'0 0.6
2018-Mar-31 21:30N 47°11' W 122°38'1 0.8
2018-Mar-31 20:01N 47°10' W 122°37'1 3.9
2018-Mar-31 19:48N 47°10' W 122°38'2 3.7
2018-Mar-31 19:15N 47°11' W 122°40'2 1.4
2018-Mar-31 17:43N 47°11' W 122°37'2 4.6
2018-Mar-31 17:16N 47°11' W 122°40'2 3.7
2018-Mar-31 16:42N 47°11' W 122°37'2 4.5
2018-Mar-31 16:17N 47°11' W 122°40'2 4.4
2018-Mar-31 15:45N 47°11' W 122°36'2 5.1
2018-Mar-31 15:16N 47°11' W 122°40'2 3.6
2018-Mar-31 14:43N 47°11' W 122°37'2 4.4
2018-Mar-31 14:14N 47°11' W 122°40'2 8.1
2018-Mar-31 13:59N 47°10' W 122°38'1 2.3
2018-Mar-31 13:29N 47°11' W 122°37'2 4.7
2018-Mar-31 13:00N 47°11' W 122°40'2 0.2
2018-Mar-31 05:43N 47°10' W 122°38'1 2.0
2018-Mar-31 05:13N 47°11' W 122°38'1 1.5
2018-Mar-31 04:26N 47°11' W 122°37'1 3.3
2018-Mar-31 03:59N 47°11' W 122°39'1 2.0
2018-Mar-31 03:30N 47°11' W 122°38'0 0.6
2018-Mar-31 03:01N 47°11' W 122°38'1 1.6
2018-Mar-31 02:25N 47°10' W 122°37'2 4.4
2018-Mar-31 01:57N 47°11' W 122°40'2 2.4
2018-Mar-31 01:11N 47°11' W 122°37'2 3.9
2018-Mar-31 00:45N 47°11' W 122°40'210.3
2018-Mar-31 00:30N 47°11' W 122°36'2 1.7
2018-Mar-30 23:36N 47°11' W 122°38'210.8
2018-Mar-30 23:27N 47°11' W 122°36'1 0.7
2018-Mar-30 22:04N 47°11' W 122°38'0 0.0
2018-Mar-30 18:03N 47°11' W 122°38'112.2
2018-Mar-30 17:59N 47°11' W 122°39'0 0.4
2018-Mar-30 16:35N 47°11' W 122°40'110.2
2018-Mar-30 16:29N 47°11' W 122°38'1 1.0
2018-Mar-30 15:55N 47°11' W 122°37'2 3.0
2018-Mar-30 15:25N 47°11' W 122°40'1 1.9
2018-Mar-30 14:48N 47°11' W 122°38'0 0.3
2018-Mar-30 13:30N 47°11' W 122°37'0 0.6
2018-Mar-30 12:53N 47°11' W 122°38'0 0.3
2018-Mar-30 11:55N 47°11' W 122°38'0 0.0
2018-Mar-30 02:58N 47°11' W 122°38'1 2.4
2018-Mar-30 02:29N 47°10' W 122°38'1 1.0
2018-Mar-30 01:06N 47°11' W 122°39'1 1.1
2018-Mar-30 00:02N 47°11' W 122°37'011.0
2018-Mar-30 00:00N 47°11' W 122°38'0 0.8
2018-Mar-29 23:30N 47°11' W 122°39'1 0.5
2018-Mar-29 22:26N 47°11' W 122°38'0 0.4
2018-Mar-29 22:01N 47°11' W 122°38'0 0.8
2018-Mar-29 21:28N 47°11' W 122°38'1 0.8
2018-Mar-29 20:01N 47°10' W 122°38'0 0.0
2018-Mar-29 19:53N 47°10' W 122°38'1 0.6
2018-Mar-29 17:53N 47°11' W 122°36'2 4.3
2018-Mar-29 17:20N 47°11' W 122°40'2 3.2
2018-Mar-29 16:46N 47°11' W 122°37'2 3.1
2018-Mar-29 16:16N 47°11' W 122°39'2 3.2
2018-Mar-29 15:46N 47°11' W 122°37'2 3.7
2018-Mar-29 15:17N 47°11' W 122°40'2 3.5
2018-Mar-29 14:45N 47°11' W 122°37'0 0.0
2018-Mar-29 04:22N 47°10' W 122°38'2 4.3
2018-Mar-29 03:56N 47°11' W 122°40'2 4.4
2018-Mar-29 03:27N 47°11' W 122°37'1 3.0
2018-Mar-29 02:58N 47°11' W 122°39'1 2.5
2018-Mar-29 02:24N 47°10' W 122°38'2 3.8
2018-Mar-29 01:55N 47°11' W 122°40'2 3.6
2018-Mar-29 01:16N 47°11' W 122°36'3 5.3
2018-Mar-29 00:47N 47°11' W 122°40'3 3.7
2018-Mar-29 00:05N 47°11' W 122°36'110.9
2018-Mar-29 00:00N 47°11' W 122°38'1 1.2
2018-Mar-28 23:29N 47°11' W 122°39'1 1.2
2018-Mar-28 23:00N 47°11' W 122°38'0 0.9
2018-Mar-28 22:30N 47°11' W 122°38'0 0.9
2018-Mar-28 22:00N 47°11' W 122°38'1 1.0
2018-Mar-28 21:29N 47°11' W 122°39'2 1.1
2018-Mar-28 20:04N 47°11' W 122°36'1 2.7
2018-Mar-28 19:42N 47°10' W 122°38'2 3.6
2018-Mar-28 19:15N 47°11' W 122°40'2 1.6
2018-Mar-28 17:46N 47°11' W 122°36'2 4.4
2018-Mar-28 17:15N 47°11' W 122°40'2 4.7
2018-Mar-28 16:46N 47°11' W 122°36'2 4.9
2018-Mar-28 16:17N 47°11' W 122°40'2 4.5
2018-Mar-28 15:46N 47°11' W 122°36'2 4.5
2018-Mar-28 15:16N 47°11' W 122°40'1 2.7
2018-Mar-28 14:43N 47°11' W 122°38'1 3.0
2018-Mar-28 14:14N 47°11' W 122°40'2 5.2
2018-Mar-28 13:53N 47°10' W 122°37'1 2.6
2018-Mar-28 13:29N 47°11' W 122°37'2 4.0
2018-Mar-28 13:00N 47°11' W 122°40'2 4.5
2018-Mar-28 12:30N 47°11' W 122°36'2 4.4
2018-Mar-28 12:00N 47°11' W 122°40'2 0.3
2018-Mar-28 04:25N 47°11' W 122°36'2 5.5
2018-Mar-28 03:59N 47°11' W 122°40'2 4.2
2018-Mar-28 03:26N 47°11' W 122°37'2 3.4
2018-Mar-28 02:58N 47°11' W 122°39'1 2.8
2018-Mar-28 02:28N 47°10' W 122°38'2 3.6
2018-Mar-28 01:56N 47°11' W 122°40'2 3.6
2018-Mar-28 01:16N 47°11' W 122°36'3 5.2
2018-Mar-28 00:47N 47°11' W 122°40'3 3.7
2018-Mar-28 00:05N 47°11' W 122°36'112.6
2018-Mar-28 00:00N 47°11' W 122°38'0 0.5
2018-Mar-27 23:30N 47°11' W 122°38'0 0.3
2018-Mar-27 23:00N 47°11' W 122°38'1 1.1
2018-Mar-27 22:30N 47°11' W 122°38'0 0.8
2018-Mar-27 22:00N 47°11' W 122°38'1 1.2
2018-Mar-27 21:30N 47°11' W 122°39'1 0.4
2018-Mar-27 19:55N 47°10' W 122°38'2 3.7
2018-Mar-27 19:29N 47°11' W 122°40'2 4.6
2018-Mar-27 18:59N 47°11' W 122°37'2 4.4
2018-Mar-27 18:30N 47°11' W 122°40'2 3.1
2018-Mar-27 17:59N 47°11' W 122°37'2 3.8
2018-Mar-27 17:30N 47°11' W 122°40'2 3.0
2018-Mar-27 16:57N 47°11' W 122°37'1 1.4
2018-Mar-27 16:21N 47°11' W 122°39'1 3.0
2018-Mar-27 15:51N 47°11' W 122°36'2 4.1
2018-Mar-27 15:17N 47°11' W 122°40'2 0.1
2018-Mar-26 20:04N 47°11' W 122°36'1 6.4
2018-Mar-26 19:51N 47°10' W 122°38'2 2.7
2018-Mar-26 19:14N 47°11' W 122°39'2 1.4
2018-Mar-26 17:46N 47°11' W 122°36'3 5.7
2018-Mar-26 17:17N 47°11' W 122°40'3 5.3
2018-Mar-26 16:46N 47°11' W 122°36'2 4.3
2018-Mar-26 16:15N 47°11' W 122°40'2 3.4
2018-Mar-26 15:43N 47°11' W 122°37'2 4.1
2018-Mar-26 15:15N 47°11' W 122°40'2 4.9
2018-Mar-26 14:46N 47°11' W 122°36'2 4.7
2018-Mar-26 14:15N 47°11' W 122°40'2 5.5
2018-Mar-26 13:54N 47°10' W 122°37'1 2.3
2018-Mar-26 13:27N 47°11' W 122°37'2 3.5
2018-Mar-26 13:00N 47°11' W 122°40'2 3.8
2018-Mar-26 12:30N 47°11' W 122°37'2 4.0
2018-Mar-26 12:00N 47°11' W 122°40'2 0.3
2018-Mar-26 04:29N 47°11' W 122°36'2 3.3
2018-Mar-26 03:59N 47°11' W 122°39'1 1.9
2018-Mar-26 03:30N 47°11' W 122°38'0 0.5
2018-Mar-26 03:00N 47°11' W 122°38'1 1.9
2018-Mar-26 02:26N 47°10' W 122°38'2 4.1
2018-Mar-26 01:56N 47°11' W 122°40'2 3.7
2018-Mar-26 01:16N 47°11' W 122°36'3 5.4
2018-Mar-26 00:47N 47°11' W 122°40'2 3.4
2018-Mar-26 00:07N 47°11' W 122°37'111.2
2018-Mar-26 00:00N 47°11' W 122°39'1 1.8
2018-Mar-25 23:30N 47°11' W 122°38'2 2.8
2018-Mar-25 22:56N 47°11' W 122°40'2 4.2
2018-Mar-25 22:30N 47°11' W 122°38'1 2.0
2018-Mar-25 22:00N 47°11' W 122°39'0 0.7
2018-Mar-25 21:30N 47°11' W 122°38'1 0.8
2018-Mar-25 20:04N 47°10' W 122°38'0 0.0
2018-Mar-25 19:59N 47°10' W 122°38'  

Dump ship's entire track history